www.hobby-wetter-faasend.de
Wetterdaten: aktuell Freitag, 23.06.2017 00:00
Datum Zeit Temp. A. Temp. A. min Temp. A. max Feuchte A. Luftdruck Regen Wind Richtung Richtung Sonnenschein Taupunkt Windchill Windben
23.06.2017 00:00 25,1 C 24,6 C 25,1 C 58 % 1011,2 hPa 0,0 l/m 1,4 km/h (1 Bft) W-SW 248 0 min 16,2 C 25,1 C 11,3 km/h (2 Bft)
22.06.2017 23:45 24,6 C 23,7 C 24,6 C 57 % 1010,9 hPa 0,0 l/m 1,3 km/h (1 Bft) SW 232 0 min 15,5 C 24,6 C 11,3 km/h (2 Bft)
22.06.2017 23:30 23,7 C 23,1 C 23,7 C 61 % 1010,8 hPa 0,0 l/m 1,1 km/h (1 Bft) W-SW 244 0 min 15,7 C 23,7 C 9,7 km/h (2 Bft)
22.06.2017 23:15 23,1 C 22,9 C 23,1 C 62 % 1010,6 hPa 0,0 l/m 0,5 km/h (0 Bft) SW 236 0 min 15,4 C 23,1 C 12,9 km/h (3 Bft)
22.06.2017 23:00 23,0 C 23,0 C 23,1 C 67 % 1010,5 hPa 0,0 l/m 0,0 km/h (0 Bft) W-SW 253 0 min 16,5 C 23,0 C 1,6 km/h (1 Bft)
22.06.2017 22:45 23,1 C 23,1 C 23,2 C 67 % 1010,5 hPa 0,0 l/m 0,1 km/h (0 Bft) W-SW 253 0 min 16,6 C 23,1 C 4,8 km/h (1 Bft)
22.06.2017 22:30 23,2 C 23,2 C 23,4 C 67 % 1010,4 hPa 0,0 l/m 0,0 km/h (0 Bft) SW 232 0 min 16,7 C 23,2 C 3,2 km/h (1 Bft)
22.06.2017 22:15 23,4 C 23,4 C 23,9 C 68 % 1010,3 hPa 0,0 l/m 0,1 km/h (0 Bft) SW 232 0 min 17,1 C 23,4 C 3,2 km/h (1 Bft)
22.06.2017 22:00 23,9 C 23,9 C 24,7 C 67 % 1010,3 hPa 0,0 l/m 0,0 km/h (0 Bft) SW 232 0 min 17,4 C 23,9 C 1,6 km/h (1 Bft)
22.06.2017 21:45 24,7 C 24,7 C 25,9 C 63 % 1010,2 hPa 0,0 l/m 0,5 km/h (0 Bft) SW 232 0 min 17,2 C 24,7 C 4,8 km/h (1 Bft)
22.06.2017 21:30 25,9 C 25,9 C 27,2 C 61 % 1010,2 hPa 0,0 l/m 0,1 km/h (0 Bft) SW 232 0 min 17,8 C 25,9 C 3,2 km/h (1 Bft)
22.06.2017 21:15 27,2 C 27,2 C 28,4 C 59 % 1010,0 hPa 0,0 l/m 0,2 km/h (0 Bft) SW 232 0 min 18,5 C 27,2 C 6,4 km/h (2 Bft)
22.06.2017 21:00 28,4 C 28,4 C 29,2 C 56 % 1009,8 hPa 0,0 l/m 0,0 km/h (0 Bft) W-SW 246 0 min 18,8 C 28,4 C 1,6 km/h (1 Bft)
22.06.2017 20:45 29,2 C 29,2 C 29,3 C 51 % 1009,9 hPa 0,0 l/m 0,5 km/h (0 Bft) W-SW 246 0 min 18,0 C 29,2 C 12,9 km/h (3 Bft)
22.06.2017 20:30 29,3 C 29,1 C 29,3 C 41 % 1010,0 hPa 0,0 l/m 1,8 km/h (1 Bft) W-NW 286 0 min 14,7 C 29,3 C 14,5 km/h (3 Bft)
22.06.2017 20:15 29,1 C 28,9 C 29,1 C 42 % 1010,1 hPa 0,0 l/m 1,9 km/h (1 Bft) W 266 0 min 14,9 C 29,1 C 12,9 km/h (3 Bft)
22.06.2017 20:00 29,1 C 29,1 C 29,3 C 61 % 1009,8 hPa 0,0 l/m 0,5 km/h (0 Bft) W-NW 292 0 min 20,8 C 29,1 C 4,8 km/h (1 Bft)
22.06.2017 19:45 29,3 C 29,1 C 29,3 C 64 % 1009,7 hPa 0,0 l/m 0,3 km/h (0 Bft) W-SW 250 0 min 21,8 C 29,3 C 4,8 km/h (1 Bft)
22.06.2017 19:30 29,3 C 29,3 C 29,6 C 63 % 1009,4 hPa 0,0 l/m 1,3 km/h (1 Bft) S 186 0 min 21,5 C 29,3 C 8,0 km/h (2 Bft)
22.06.2017 19:15 29,6 C 29,6 C 30,3 C 62 % 1009,1 hPa 0,0 l/m 3,5 km/h (1 Bft) S-SO 155 0 min 21,5 C 29,6 C 16,1 km/h (3 Bft)
22.06.2017 19:00 30,3 C 30,3 C 30,4 C 62 % 1009,1 hPa 0,0 l/m 4,0 km/h (1 Bft) S 191 0 min 22,2 C 30,3 C 17,7 km/h (3 Bft)
22.06.2017 18:45 30,3 C 30,0 C 30,3 C 62 % 1008,9 hPa 0,0 l/m 4,8 km/h (1 Bft) S-SW 211 0 min 22,2 C 30,3 C 17,7 km/h (3 Bft)
22.06.2017 18:30 30,2 C 29,8 C 30,2 C 65 % 1008,9 hPa 0,0 l/m 4,6 km/h (1 Bft) S-SO 147 0 min 22,9 C 30,2 C 16,1 km/h (3 Bft)
22.06.2017 18:16 29,8 C 28,9 C 29,8 C 68 % 1009,1 hPa 0,0 l/m 4,1 km/h (1 Bft) S-SW 198 0 min 23,2 C 29,8 C 16,1 km/h (3 Bft)
22.06.2017 18:00 28,9 C 28,7 C 28,9 C 73 % 1009,3 hPa 0,0 l/m 2,1 km/h (1 Bft) S-SW 205 0 min 23,6 C 28,9 C 12,9 km/h (3 Bft)
22.06.2017 17:45 28,8 C 28,8 C 30,1 C 75 % 1009,5 hPa 0,0 l/m 1,3 km/h (1 Bft) S 178 0 min 23,9 C 28,8 C 8,0 km/h (2 Bft)
22.06.2017 17:30 30,1 C 29,1 C 30,1 C 73 % 1009,6 hPa 0,0 l/m 1,6 km/h (1 Bft) S 177 0 min 24,7 C 30,1 C 8,0 km/h (2 Bft)
22.06.2017 17:15 29,1 C 28,1 C 29,1 C 81 % 1009,7 hPa 0,0 l/m 0,6 km/h (0 Bft) S-SO 167 0 min 25,5 C 29,1 C 8,0 km/h (2 Bft)
22.06.2017 17:00 28,1 C 26,7 C 28,1 C 81 % 1010,0 hPa 0,0 l/m 0,8 km/h (0 Bft) S 182 0 min 24,5 C 28,1 C 8,0 km/h (2 Bft)
22.06.2017 16:45 26,7 C 25,6 C 26,7 C 84 % 1010,4 hPa 0,0 l/m 1,8 km/h (1 Bft) S 169 0 min 23,8 C 26,7 C 9,7 km/h (2 Bft)
22.06.2017 16:30 25,6 C 23,2 C 25,6 C 86 % 1010,6 hPa 0,2 l/m 1,2 km/h (1 Bft) S 180 0 min 23,1 C 25,6 C 6,4 km/h (2 Bft)
22.06.2017 16:15 23,2 C 23,0 C 23,4 C 89 % 1010,8 hPa 0,0 l/m 3,3 km/h (1 Bft) S-SW 201 0 min 21,3 C 23,2 C 16,1 km/h (3 Bft)
22.06.2017 16:00 23,4 C 23,4 C 25,4 C 84 % 1010,9 hPa 2,0 l/m 8,9 km/h (2 Bft) S-SW 206 0 min 20,5 C 22,7 C 33,8 km/h (5 Bft)
22.06.2017 15:45 25,4 C 25,4 C 26,0 C 81 % 1011,9 hPa 3,4 l/m 7,2 km/h (2 Bft) SO 146 0 min 21,9 C 25,2 C 43,5 km/h (6 Bft)
22.06.2017 15:30 26,0 C 26,0 C 26,2 C 84 % 1011,1 hPa 0,2 l/m 2,4 km/h (1 Bft) S 187 0 min 23,1 C 26,0 C 9,7 km/h (2 Bft)
22.06.2017 15:15 26,2 C 24,6 C 26,2 C 81 % 1011,2 hPa 0,0 l/m 1,1 km/h (1 Bft) S 175 0 min 22,7 C 26,2 C 11,3 km/h (2 Bft)
22.06.2017 15:00 24,6 C 23,1 C 24,6 C 88 % 1011,2 hPa 0,0 l/m 0,0 km/h (0 Bft) S 182 0 min 22,5 C 24,6 C 1,6 km/h (1 Bft)
22.06.2017 14:45 23,1 C 23,0 C 24,2 C 86 % 1011,5 hPa 0,0 l/m 1,7 km/h (1 Bft) SW 223 0 min 20,6 C 23,1 C 12,9 km/h (3 Bft)
22.06.2017 14:30 24,2 C 24,2 C 25,6 C 78 % 1011,4 hPa 0,0 l/m 3,7 km/h (1 Bft) S-SW 200 0 min 20,1 C 24,2 C 22,5 km/h (4 Bft)
22.06.2017 14:16 25,6 C 25,6 C 31,2 C 71 % 1011,3 hPa 4,2 l/m 9,1 km/h (2 Bft) SW 234 0 min 19,9 C 25,0 C 27,4 km/h (4 Bft)
22.06.2017 14:00 31,2 C 31,2 C 32,8 C 57 % 1011,9 hPa 0,8 l/m 4,8 km/h (1 Bft) S-SW 196 0 min 21,6 C 31,2 C 19,3 km/h (3 Bft)
22.06.2017 13:45 32,8 C 32,8 C 33,7 C 46 % 1011,0 hPa 0,0 l/m 2,1 km/h (1 Bft) W 268 0 min 19,6 C 32,8 C 11,3 km/h (2 Bft)
22.06.2017 13:30 33,7 C 33,6 C 33,9 C 46 % 1011,3 hPa 0,0 l/m 2,1 km/h (1 Bft) S 173 0 min 20,4 C 33,7 C 9,7 km/h (2 Bft)
22.06.2017 13:16 33,8 C 33,4 C 34,1 C 46 % 1011,4 hPa 0,0 l/m 1,6 km/h (1 Bft) SW 220 0 min 20,5 C 33,8 C 14,5 km/h (3 Bft)
22.06.2017 13:00 33,7 C 33,4 C 33,8 C 46 % 1011,6 hPa 0,0 l/m 3,5 km/h (1 Bft) S 176 0 min 20,4 C 33,7 C 14,5 km/h (3 Bft)
22.06.2017 12:45 33,8 C 33,3 C 33,9 C 46 % 1012,0 hPa 0,0 l/m 3,0 km/h (1 Bft) W-SW 250 0 min 20,5 C 33,8 C 16,1 km/h (3 Bft)
22.06.2017 12:30 33,8 C 33,2 C 33,9 C 44 % 1012,3 hPa 0,0 l/m 3,9 km/h (1 Bft) S 189 0 min 19,8 C 33,8 C 20,9 km/h (4 Bft)
22.06.2017 12:15 33,2 C 32,6 C 33,2 C 47 % 1012,5 hPa 0,0 l/m 2,6 km/h (1 Bft) S-SW 212 0 min 20,3 C 33,2 C 11,3 km/h (2 Bft)
22.06.2017 12:00 32,6 C 31,8 C 32,6 C 47 % 1012,6 hPa 0,0 l/m 2,7 km/h (1 Bft) S 172 0 min 19,8 C 32,6 C 12,9 km/h (3 Bft)
22.06.2017 11:45 31,8 C 31,8 C 32,2 C 48 % 1012,6 hPa 0,0 l/m 3,7 km/h (1 Bft) S-SW 198 0 min 19,4 C 31,8 C 14,5 km/h (3 Bft)
22.06.2017 11:30 31,9 C 31,3 C 31,9 C 48 % 1012,7 hPa 0,0 l/m 5,4 km/h (1 Bft) SW 226 0 min 19,5 C 31,9 C 16,1 km/h (3 Bft)
22.06.2017 11:16 31,3 C 31,0 C 31,4 C 47 % 1012,7 hPa 0,0 l/m 5,1 km/h (1 Bft) S-SO 161 0 min 18,6 C 31,3 C 17,7 km/h (3 Bft)
22.06.2017 11:00 31,2 C 30,7 C 31,3 C 49 % 1012,8 hPa 0,0 l/m 2,6 km/h (1 Bft) SO 125 0 min 19,2 C 31,2 C 16,1 km/h (3 Bft)
22.06.2017 10:45 30,7 C 29,8 C 30,7 C 51 % 1012,9 hPa 0,0 l/m 2,7 km/h (1 Bft) SO 136 0 min 19,4 C 30,7 C 12,9 km/h (3 Bft)
22.06.2017 10:30 29,8 C 29,5 C 29,9 C 52 % 1013,0 hPa 0,0 l/m 4,5 km/h (1 Bft) S-SO 161 0 min 18,9 C 29,8 C 11,3 km/h (2 Bft)
22.06.2017 10:16 29,5 C 28,9 C 29,5 C 57 % 1013,0 hPa 0,0 l/m 2,5 km/h (1 Bft) S 173 0 min 20,1 C 29,5 C 11,3 km/h (2 Bft)
22.06.2017 10:00 28,9 C 27,9 C 29,0 C 58 % 1013,1 hPa 0,0 l/m 0,6 km/h (0 Bft) S-SO 156 0 min 19,8 C 28,9 C 9,7 km/h (2 Bft)
22.06.2017 09:45 27,9 C 26,8 C 27,9 C 63 % 1013,2 hPa 0,0 l/m 1,3 km/h (1 Bft) SO 138 0 min 20,2 C 27,9 C 9,7 km/h (2 Bft)
22.06.2017 09:30 26,8 C 25,7 C 26,8 C 67 % 1013,3 hPa 0,0 l/m 0,2 km/h (0 Bft) S-SO 157 0 min 20,1 C 26,8 C 4,8 km/h (1 Bft)
22.06.2017 09:16 25,7 C 25,1 C 25,9 C 70 % 1013,4 hPa 0,0 l/m 0,2 km/h (0 Bft) SO 145 0 min 19,8 C 25,7 C 4,8 km/h (1 Bft)
22.06.2017 09:00 25,1 C 24,1 C 25,1 C 72 % 1013,4 hPa 0,0 l/m 0,6 km/h (0 Bft) O-SO 113 0 min 19,7 C 25,1 C 4,8 km/h (1 Bft)
22.06.2017 08:45 24,1 C 23,7 C 24,1 C 76 % 1013,6 hPa 0,0 l/m 0,3 km/h (0 Bft) O-NO 64 0 min 19,6 C 24,1 C 6,4 km/h (2 Bft)
22.06.2017 08:30 23,7 C 22,4 C 23,8 C 76 % 1013,5 hPa 0,0 l/m 0,0 km/h (0 Bft) SO 138 0 min 19,2 C 23,7 C 1,6 km/h (1 Bft)
22.06.2017 08:15 22,4 C 21,6 C 22,4 C 80 % 1013,5 hPa 0,0 l/m 0,0 km/h (0 Bft) O-NO 63 0 min 18,8 C 22,4 C 1,6 km/h (1 Bft)
22.06.2017 08:00 21,6 C 20,9 C 21,6 C 82 % 1013,5 hPa 0,0 l/m 0,0 km/h (0 Bft) O-NO 63 0 min 18,4 C 21,6 C 0,0 km/h (0 Bft)
22.06.2017 07:45 20,9 C 20,3 C 20,9 C 84 % 1013,6 hPa 0,0 l/m 0,0 km/h (0 Bft) O-NO 63 0 min 18,1 C 20,9 C 0,0 km/h (0 Bft)
22.06.2017 07:30 20,3 C 19,3 C 20,3 C 85 % 1013,6 hPa 0,0 l/m 0,0 km/h (0 Bft) NW 305 0 min 17,7 C 20,3 C 0,0 km/h (0 Bft)
22.06.2017 07:16 19,3 C 18,3 C 19,3 C 90 % 1013,6 hPa 0,0 l/m 0,0 km/h (0 Bft) NW 305 0 min 17,6 C 19,3 C 0,0 km/h (0 Bft)
22.06.2017 07:00 18,3 C 17,7 C 18,3 C 93 % 1013,7 hPa 0,0 l/m 0,0 km/h (0 Bft) NW 305 0 min 17,1 C 18,3 C 0,0 km/h (0 Bft)
22.06.2017 06:45 17,8 C 17,2 C 17,8 C 93 % 1013,8 hPa 0,0 l/m 0,0 km/h (0 Bft) NW 305 0 min 16,7 C 17,8 C 0,0 km/h (0 Bft)
22.06.2017 06:30 17,2 C 16,9 C 17,2 C 92 % 1013,8 hPa 0,0 l/m 0,0 km/h (0 Bft) NW 305 0 min 15,9 C 17,2 C 0,0 km/h (0 Bft)
22.06.2017 06:15 16,9 C 16,8 C 16,9 C 92 % 1013,7 hPa 0,0 l/m 0,0 km/h (0 Bft) NW 305 0 min 15,6 C 16,9 C 0,0 km/h (0 Bft)
22.06.2017 06:00 16,8 C 16,8 C 16,8 C 91 % 1013,7 hPa 0,0 l/m 0,0 km/h (0 Bft) NW 305 0 min 15,3 C 16,8 C 0,0 km/h (0 Bft)
22.06.2017 05:45 16,8 C 16,8 C 16,8 C 91 % 1013,7 hPa 0,0 l/m 0,0 km/h (0 Bft) NW 305 0 min 15,3 C 16,8 C 0,0 km/h (0 Bft)
22.06.2017 05:30 16,8 C 16,8 C 16,9 C 90 % 1013,6 hPa 0,0 l/m 0,0 km/h (0 Bft) NW 305 0 min 15,1 C 16,8 C 0,0 km/h (0 Bft)
22.06.2017 05:15 16,9 C 16,9 C 17,0 C 90 % 1013,6 hPa 0,0 l/m 0,0 km/h (0 Bft) NW 305 0 min 15,2 C 16,9 C 0,0 km/h (0 Bft)
22.06.2017 05:00 17,0 C 17,0 C 17,1 C 89 % 1013,6 hPa 0,0 l/m 0,0 km/h (0 Bft) NW 305 0 min 15,2 C 17,0 C 0,0 km/h (0 Bft)
22.06.2017 04:45 17,1 C 17,1 C 17,2 C 89 % 1013,7 hPa 0,0 l/m 0,0 km/h (0 Bft) NW 305 0 min 15,3 C 17,1 C 0,0 km/h (0 Bft)
22.06.2017 04:30 17,2 C 17,2 C 17,3 C 89 % 1013,7 hPa 0,0 l/m 0,0 km/h (0 Bft) NW 305 0 min 15,4 C 17,2 C 0,0 km/h (0 Bft)
22.06.2017 04:15 17,3 C 17,3 C 17,4 C 88 % 1013,7 hPa 0,0 l/m 0,0 km/h (0 Bft) NW 305 0 min 15,3 C 17,3 C 0,0 km/h (0 Bft)
22.06.2017 04:00 17,4 C 17,4 C 17,6 C 88 % 1013,8 hPa 0,0 l/m 0,0 km/h (0 Bft) NW 305 0 min 15,4 C 17,4 C 0,0 km/h (0 Bft)
22.06.2017 03:45 17,6 C 17,6 C 17,7 C 87 % 1013,8 hPa 0,0 l/m 0,0 km/h (0 Bft) NW 305 0 min 15,4 C 17,6 C 0,0 km/h (0 Bft)
22.06.2017 03:30 17,7 C 17,7 C 17,8 C 87 % 1013,9 hPa 0,0 l/m 0,0 km/h (0 Bft) NW 305 0 min 15,5 C 17,7 C 0,0 km/h (0 Bft)
22.06.2017 03:15 17,8 C 17,8 C 18,0 C 86 % 1013,7 hPa 0,0 l/m 0,0 km/h (0 Bft) NW 305 0 min 15,4 C 17,8 C 0,0 km/h (0 Bft)
22.06.2017 03:00 18,0 C 18,0 C 18,2 C 85 % 1013,8 hPa 0,0 l/m 0,0 km/h (0 Bft) NW 305 0 min 15,4 C 18,0 C 0,0 km/h (0 Bft)
22.06.2017 02:45 18,2 C 18,2 C 18,3 C 85 % 1013,9 hPa 0,0 l/m 0,0 km/h (0 Bft) NW 305 0 min 15,6 C 18,2 C 0,0 km/h (0 Bft)
22.06.2017 02:30 18,3 C 18,3 C 18,5 C 84 % 1013,9 hPa 0,0 l/m 0,0 km/h (0 Bft) NW 305 0 min 15,5 C 18,3 C 0,0 km/h (0 Bft)
22.06.2017 02:16 18,5 C 18,4 C 18,7 C 84 % 1013,9 hPa 0,0 l/m 0,0 km/h (0 Bft) NW 305 0 min 15,7 C 18,5 C 0,0 km/h (0 Bft)
22.06.2017 02:00 18,7 C 18,7 C 18,8 C 83 % 1014,0 hPa 0,0 l/m 0,0 km/h (0 Bft) NW 305 0 min 15,8 C 18,7 C 0,0 km/h (0 Bft)
22.06.2017 01:45 18,8 C 18,8 C 19,1 C 82 % 1014,0 hPa 0,0 l/m 0,0 km/h (0 Bft) NW 305 0 min 15,7 C 18,8 C 0,0 km/h (0 Bft)
22.06.2017 01:30 19,1 C 19,1 C 19,3 C 80 % 1014,1 hPa 0,0 l/m 0,0 km/h (0 Bft) NW 305 0 min 15,6 C 19,1 C 0,0 km/h (0 Bft)
22.06.2017 01:16 19,3 C 19,3 C 19,6 C 79 % 1014,2 hPa 0,0 l/m 0,0 km/h (0 Bft) NW 305 0 min 15,6 C 19,3 C 0,0 km/h (0 Bft)
22.06.2017 01:00 19,6 C 19,6 C 19,8 C 78 % 1014,2 hPa 0,0 l/m 0,0 km/h (0 Bft) NW 305 0 min 15,7 C 19,6 C 0,0 km/h (0 Bft)
_ Min-Zeit 05:30 05:30 05:45 20:30 18:30 - 01:00 - - - 20:30 05:30 01:00
Minimum _ 16,8 C 16,8 C 16,8 C 41 % 1008,9 hPa - 0,0 km/h (0 Bft) - - - 14,7 C 16,8 C 0,0 km/h (0 Bft)
_ Max-Zeit 13:16 13:30 13:16 06:45 01:00 14:16 14:16 - - 01:00 17:15 12:30 15:45
Maximum _ 34,1 C 33,6 C 34,1 C 93 % 1014,2 hPa 4,2 l/m 9,1 km/h
SW (2 Bft)
- - 0 min 25,5 C 33,8 C 43,5 km/h
S-SO (6 Bft)
Durchschnitt _ 24,7 C 24,3 C 25,0 C 71 % 1012,0 hPa #10,8 l/m 1,4 km/h (1 Bft) S - #0 min. 18,6 C 24,7 C 7,6 km/h (2 Bft)